Impacts TAF Board
For situational awareness. Not to be used for flight planning purposes.
IDs:

KSAN - San Diego Intl Arpt, CA, US

Issued at 0520 UTC 25 May 2020
Updated at 0842 UTC 25 May 2020
Potential Impact None Slight Moderate High
Time0751Z 25/09Z 25/10Z 25/11Z 25/12Z 25/13Z 25/14Z 25/15Z 25/16Z 25/17Z 25/18Z 25/19Z 25/20Z 25/21Z>>
Type OBS PRVL PRVL PRVL PRVL PRVL PRVL PRVL PRVL PRVL PRVL PRVL PRVL PRVL
VIS 10 >6 >6 >6 >6 >6 >6 >6 >6 >6 >6 >6 >6 >6
CIG 11 10 10 10 10 10 10 10 10 -- -- -- -- --
Cover OVC BKN BKN BKN BKN BKN BKN BKN BKN SCT SCT SCT SCT SCT
FltCat MVFR MVFR MVFR MVFR MVFR MVFR MVFR MVFR MVFR VFR VFR VFR VFR VFR
WX -- -- -- -- -- -- -- -- -- -- -- -- -- --
WDir 40 VRB VRB VRB VRB VRB VRB VRB VRB VRB VRB 290 290 290
WSpd 4 4 4 4 4 4 4 4 4 4 4 10 10 10
WGst -- -- -- -- -- -- -- -- -- -- -- -- -- --
Raw TAF
KSAN 250520Z 2506/2612 VRB04KT P6SM FEW012
  FM250700 VRB04KT P6SM BKN010
  FM251630 VRB04KT P6SM SCT012 SCT250
  FM251900 29010KT P6SM FEW015 SCT250
  FM260300 VRB05KT 5SM BR SCT008 BKN250
  FM260600 VRB04KT 3SM BR BKN007


Raw METAR
KSAN 250751Z 04004KT 10SM OVC011 18/14 A2992 RMK AO2 SLP130 T01830139 402220161
KSAN 250651Z 31003KT 10SM OVC012 18/14 A2993 RMK AO2 SLP135 T01780144
KSAN 250619Z 30004KT 10SM BKN012 18/14 A2993 RMK AO2 T01780139
KSAN 250551Z 30003KT 10SM SCT015 18/14 A2993 RMK AO2 SLP136 T01780139 10211 20178 50014

METAR Board
Radar Display
Forecast Discussion
For situational awareness. Not to be used for flight planning purposes.